Haysville, KS (67060)

4:21 PM CDT on July 28, 2016 (GMT -0500)
87th St S/S Woodside | | Change Station
Active Advisory: Severe Thunderstorm Watch

Elev 1293 ft 37.53 °N, 97.35 °W | Updated 1 second ago

Mostly Cloudy
Mostly Cloudy
76.6 °F
Feels Like 78 °F
N
2.0
Wind Variable Wind from ESE
Gusts 5.0 mph

Today
High -- | Low -- °F
--% Chance of Precip.
Yesterday
High -- | Low -- °F
Precip. -- in
Pressure 29.90 in
Visibility 10.0 miles
Clouds Few 5000 ft
Scattered Clouds 6500 ft
Mostly Cloudy 22000 ft
Heat Index 78 °F
Dew Point 70 °F
Humidity 80%
Rainfall 0.46 in
Snow Depth Not available.
6:30 AM 8:40 PM
Waning Crescent, 28% visible
METAR KICT 282053Z 15012G16KT 10SM FEW050 SCT065 BKN220 31/20 A2995 RMK AO2 SLP125 CB DSNT E-SE-SW MOV S T03110200 56007
Pressure 29.90 in
Visibility 10.0 miles
Clouds Few 5000 ft
Scattered Clouds 6500 ft
Mostly Cloudy 22000 ft
Heat Index 78 °F
Dew Point 70 °F
Humidity 80%
Rainfall 0.46 in
Snow Depth Not available.
6:30 AM 8:40 PM
Waning Crescent, 28% visible
METAR KICT 282053Z 15012G16KT 10SM FEW050 SCT065 BKN220 31/20 A2995 RMK AO2 SLP125 CB DSNT E-SE-SW MOV S T03110200 56007

10-Day Weather Forecast

Almanac

Astronomy

Jul. 28, 2016 Rise Set
Actual Time
Civil Twilight
Nautical Twilight
Astronomical Twilight
Moon
Length of Visible Light
Length of Day
Tomorrow will be .
, % of the Moon is Illuminated

Today's Extremes

State Highs State Lows

Community

WunderPhotos

Upload Photos

1,928,224 photos uploaded!

WunderBlog® & News

Nearby

Air Quality

  Air Quality AQ Index Pollutant
Not available.

Snow Depth

Station Depth Elevation

Earthquake Activity

City Distance Mag. Time & Date
Minimum magnitude displayed is 2.5.

Coastal Water Temperatures

Place Temperature

Stations

Nearby Weather Stations

Station Location Temp. Windchill Dew Point Humidity Wind Precip. Elev Updated Type
                   

Watches & Warnings

Severe Thunderstorm Watch
Issued: 4:03 PM CDT Jul. 28, 2016 – National Weather Service

Severe Thunderstorm Watch 420 remains in effect until 1100 PM CDT
for the following locations


KS
. Kansas counties included are

Barton Butler cloud
Decatur Dickinson Edwards
Ellis Ellsworth Gove
Graham Harvey Jewell
Kingman Lincoln McPherson
Marion Mitchell Ness
Norton Osborne Ottawa
Pawnee Phillips Pratt
Reno Republic Rice
Rooks rush Russell
Saline Sedgwick Sheridan
Smith Stafford Trego